Time,TemperatureF,DewpointF,PressureIn,WindDirection,WindDirectionDegrees,WindSpeedMPH,WindSpeedGustMPH,Humidity,HourlyPrecipIn,Conditions,Clouds,dailyrainin,SolarRadiationWatts/m^2,SoftwareType,DateUTC
2013-01-01 00:03:00,54.0,53.0,-100.00,NNE,29,3.0,-999.0,97,0.00,,,-99.99,0.200000,,2013-01-01 05:03:00,
2013-01-01 00:12:00,54.0,53.0,-100.00,North,9,3.0,-999.0,97,0.00,,,-99.99,0.200000,,2013-01-01 05:12:00,
2013-01-01 00:22:00,54.0,53.0,-100.00,North,9,3.0,-999.0,97,0.00,,,-99.99,0.200000,,2013-01-01 05:22:00,
2013-01-01 00:33:00,54.0,53.0,-100.00,NNE,14,2.0,-999.0,97,0.00,,,-99.99,0.200000,,2013-01-01 05:33:00,
2013-01-01 00:42:00,54.0,53.0,-100.00,NNE,12,2.0,-999.0,97,0.00,,,-99.99,0.200000,,2013-01-01 05:42:00,
2013-01-01 00:53:00,54.0,53.0,-100.00,NNE,12,2.0,-999.0,97,0.00,,,-99.99,0.200000,,2013-01-01 05:53:00,
2013-01-01 01:02:00,54.0,53.0,-100.00,NNE,16,2.0,-999.0,97,0.00,,,-99.99,0.200000,,2013-01-01 06:02:00,
2013-01-01 01:12:00,54.0,53.0,-100.00,NNE,22,2.0,-999.0,98,0.00,,,-99.99,0.200000,,2013-01-01 06:12:00,
2013-01-01 01:22:00,54.0,53.0,-100.00,NNE,22,2.0,-999.0,98,0.00,,,-99.99,0.200000,,2013-01-01 06:22:00,
2013-01-01 01:32:00,54.0,54.0,-100.00,North,351,2.0,-999.0,98,0.00,,,-99.99,0.200000,,2013-01-01 06:32:00,
2013-01-01 01:42:00,54.0,53.0,-100.00,NNW,334,2.0,-999.0,98,0.00,,,-99.99,0.200000,,2013-01-01 06:42:00,
2013-01-01 01:52:00,54.0,53.0,-100.00,NNW,334,2.0,-999.0,98,0.00,,,-99.99,0.200000,,2013-01-01 06:52:00,
2013-01-01 02:02:00,54.0,54.0,-100.00,NNW,340,4.0,-999.0,98,0.00,,,-99.99,0.200000,,2013-01-01 07:02:00,
2013-01-01 02:12:00,55.0,55.0,-100.00,North,356,4.0,-999.0,98,0.00,,,-99.99,0.200000,,2013-01-01 07:12:00,
2013-01-01 02:22:00,55.0,55.0,-100.00,North,356,4.0,-999.0,98,0.00,,,-99.99,0.200000,,2013-01-01 07:22:00,
2013-01-01 02:32:00,54.0,54.0,-100.00,North,8,3.0,-999.0,98,0.00,,,-99.99,0.200000,,2013-01-01 07:32:00,
2013-01-01 02:42:00,54.0,54.0,-100.00,NNE,26,1.0,-999.0,98,0.00,,,-99.99,0.200000,,2013-01-01 07:42:00,
2013-01-01 02:53:00,54.0,54.0,-100.00,NNE,26,1.0,-999.0,98,0.00,,,-99.99,0.200000,,2013-01-01 07:53:00,
2013-01-01 03:02:00,54.0,54.0,-100.00,North,11,1.0,-999.0,98,0.00,,,-99.99,0.200000,,2013-01-01 08:02:00,
2013-01-01 03:12:00,53.0,53.0,-100.00,ENE,77,1.0,-999.0,98,0.00,,,-99.99,0.200000,,2013-01-01 08:12:00,
2013-01-01 03:22:00,53.0,53.0,-100.00,ENE,77,1.0,-999.0,98,0.00,,,-99.99,0.200000,,2013-01-01 08:22:00,
2013-01-01 03:32:00,53.0,53.0,-100.00,NNE,19,1.0,-999.0,98,0.00,,,-99.99,0.200000,,2013-01-01 08:32:00,
2013-01-01 03:42:00,53.0,53.0,-100.00,NNE,13,2.0,-999.0,98,0.00,,,-99.99,0.200000,,2013-01-01 08:42:00,
2013-01-01 03:53:00,53.0,53.0,-100.00,NNE,13,2.0,-999.0,98,0.00,,,-99.99,0.200000,,2013-01-01 08:53:00,
2013-01-01 04:02:00,52.0,52.0,-100.00,ENE,57,2.0,-999.0,98,0.00,,,-99.99,0.200000,,2013-01-01 09:02:00,
2013-01-01 04:12:00,52.0,52.0,-100.00,ENE,66,2.0,-999.0,99,0.00,,,-99.99,0.200000,,2013-01-01 09:12:00,
2013-01-01 04:22:00,52.0,52.0,-100.00,ENE,66,2.0,-999.0,99,0.00,,,-99.99,0.200000,,2013-01-01 09:22:00,
2013-01-01 04:32:00,52.0,52.0,-100.00,East,101,2.0,-999.0,99,0.00,,,-99.99,0.200000,,2013-01-01 09:32:00,
2013-01-01 04:42:00,52.0,51.0,-100.00,ESE,122,1.0,-999.0,99,0.00,,,-99.99,0.200000,,2013-01-01 09:42:00,
2013-01-01 04:52:00,52.0,51.0,-100.00,ESE,122,1.0,-999.0,99,0.00,,,-99.99,0.200000,,2013-01-01 09:52:00,
2013-01-01 05:02:00,51.0,51.0,-100.00,SE,139,2.0,-999.0,99,0.00,,,-99.99,0.200000,,2013-01-01 10:02:00,
2013-01-01 05:12:00,51.0,51.0,-100.00,ESE,120,2.0,-999.0,99,0.00,,,-99.99,0.200000,,2013-01-01 10:12:00,
2013-01-01 05:22:00,51.0,51.0,-100.00,ESE,120,2.0,-999.0,99,0.00,,,-99.99,0.200000,,2013-01-01 10:22:00,
2013-01-01 05:33:00,51.0,51.0,-100.00,NE,56,1.0,-999.0,99,0.00,,,-99.99,0.200000,,2013-01-01 10:33:00,
2013-01-01 05:42:00,52.0,52.0,-100.00,NE,48,2.0,-999.0,99,0.00,,,-99.99,0.200000,,2013-01-01 10:42:00,
2013-01-01 05:53:00,52.0,52.0,-100.00,NE,48,2.0,-999.0,99,0.00,,,-99.99,0.200000,,2013-01-01 10:53:00,
2013-01-01 06:02:00,53.0,53.0,-100.00,ENE,64,2.0,-999.0,99,0.00,,,-99.99,0.200000,,2013-01-01 11:02:00,
2013-01-01 06:12:00,53.0,53.0,-100.00,WSW,237,2.0,-999.0,99,0.00,,,-99.99,0.200000,,2013-01-01 11:12:00,
2013-01-01 06:23:00,53.0,53.0,-100.00,WSW,237,2.0,-999.0,99,0.00,,,-99.99,0.200000,,2013-01-01 11:23:00,
2013-01-01 06:33:00,53.0,53.0,-100.00,SSW,205,2.0,-999.0,99,0.00,,,-99.99,0.200000,,2013-01-01 11:33:00,
2013-01-01 06:43:00,52.0,52.0,-100.00,SSW,199,2.0,-999.0,99,0.00,,,-99.99,0.200000,,2013-01-01 11:43:00,
2013-01-01 06:53:00,52.0,52.0,-100.00,SSW,199,2.0,-999.0,99,0.00,,,-99.99,0.200000,,2013-01-01 11:53:00,
2013-01-01 07:02:00,53.0,53.0,-100.00,SSW,198,3.0,-999.0,99,0.00,,,-99.99,0.200000,,2013-01-01 12:02:00,
2013-01-01 07:12:00,54.0,54.0,-100.00,South,187,3.0,-999.0,99,0.00,,,-99.99,0.400000,,2013-01-01 12:12:00,
2013-01-01 07:22:00,54.0,54.0,-100.00,South,187,3.0,-999.0,99,0.00,,,-99.99,0.400000,,2013-01-01 12:22:00,
2013-01-01 07:33:00,54.0,54.0,-100.00,SW,229,2.0,-999.0,99,0.00,,,-99.99,2.200000,,2013-01-01 12:33:00,
2013-01-01 07:42:00,54.0,54.0,-100.00,West,268,2.0,-999.0,99,0.00,,,-99.99,8.800000,,2013-01-01 12:42:00,
2013-01-01 07:53:00,54.0,54.0,-100.00,West,268,2.0,-999.0,99,0.00,,,-99.99,8.800000,,2013-01-01 12:53:00,
2013-01-01 08:02:00,55.0,55.0,-100.00,NW,313,1.0,-999.0,99,0.00,,,-99.99,17.600000,,2013-01-01 13:02:00,
2013-01-01 08:12:00,56.0,56.0,-100.00,WNW,302,1.0,-999.0,100,0.00,,,-99.99,33.599998,,2013-01-01 13:12:00,
2013-01-01 08:22:00,56.0,56.0,-100.00,WNW,302,1.0,-999.0,100,0.00,,,-99.99,33.599998,,2013-01-01 13:22:00,
2013-01-01 08:33:00,57.0,57.0,-100.00,West,276,1.0,-999.0,99,0.00,,,-99.99,60.900002,,2013-01-01 13:33:00,
2013-01-01 08:43:00,59.0,58.0,-100.00,NNW,329,1.0,-999.0,99,0.00,,,-99.99,118.800003,,2013-01-01 13:43:00,
2013-01-01 08:53:00,59.0,58.0,-100.00,NNW,329,1.0,-999.0,99,0.00,,,-99.99,118.800003,,2013-01-01 13:53:00,
2013-01-01 09:02:00,60.0,60.0,-100.00,North,358,1.0,-999.0,99,0.00,,,-99.99,139.500000,,2013-01-01 14:02:00,
2013-01-01 09:12:00,63.0,63.0,-100.00,NNE,15,1.0,-999.0,98,0.00,,,-99.99,257.299988,,2013-01-01 14:12:00,
2013-01-01 09:22:00,63.0,63.0,-100.00,NNE,15,1.0,-999.0,98,0.00,,,-99.99,257.299988,,2013-01-01 14:22:00,
2013-01-01 09:32:00,67.0,65.0,-100.00,North,4,1.0,-999.0,96,0.00,,,-99.99,298.600006,,2013-01-01 14:32:00,
2013-01-01 09:42:00,68.0,64.0,-100.00,SSW,213,4.0,-999.0,88,0.00,,,-99.99,340.100006,,2013-01-01 14:42:00,
2013-01-01 09:53:00,68.0,64.0,-100.00,SSW,213,4.0,-999.0,88,0.00,,,-99.99,340.100006,,2013-01-01 14:53:00,
2013-01-01 10:03:00,70.0,62.0,-100.00,SSW,205,5.0,-999.0,75,0.00,,,-99.99,383.500000,,2013-01-01 15:03:00,
2013-01-01 10:12:00,71.0,61.0,-100.00,SSW,207,6.0,-999.0,69,0.00,,,-99.99,414.000000,,2013-01-01 15:12:00,
2013-01-01 10:22:00,71.0,61.0,-100.00,SSW,207,6.0,-999.0,69,0.00,,,-99.99,414.000000,,2013-01-01 15:22:00,
2013-01-01 10:33:00,72.0,61.0,-100.00,SSW,193,8.0,-999.0,67,0.00,,,-99.99,418.399994,,2013-01-01 15:33:00,
2013-01-01 10:43:00,73.0,60.0,-100.00,South,180,11.0,-999.0,64,0.00,,,-99.99,403.600006,,2013-01-01 15:43:00,
2013-01-01 10:53:00,73.0,60.0,-100.00,South,180,11.0,-999.0,64,0.00,,,-99.99,403.600006,,2013-01-01 15:53:00,
2013-01-01 11:02:00,73.0,60.0,-100.00,SSW,192,10.0,-999.0,63,0.00,,,-99.99,354.399994,,2013-01-01 16:02:00,
2013-01-01 11:12:00,75.0,60.0,-100.00,South,177,8.0,-999.0,60,0.00,,,-99.99,457.000000,,2013-01-01 16:12:00,
2013-01-01 11:22:00,75.0,60.0,-100.00,South,177,8.0,-999.0,60,0.00,,,-99.99,457.000000,,2013-01-01 16:22:00,
2013-01-01 11:33:00,74.0,60.0,-100.00,South,176,10.0,-999.0,60,0.00,,,-99.99,358.399994,,2013-01-01 16:33:00,
2013-01-01 11:43:00,74.0,60.0,-100.00,South,184,11.0,-999.0,60,0.00,,,-99.99,321.600006,,2013-01-01 16:43:00,
2013-01-01 11:53:00,74.0,60.0,-100.00,South,184,11.0,-999.0,60,0.00,,,-99.99,321.600006,,2013-01-01 16:53:00,
2013-01-01 12:02:00,75.0,60.0,-100.00,South,173,7.0,-999.0,60,0.00,,,-99.99,331.600006,,2013-01-01 17:02:00,
2013-01-01 12:12:00,75.0,60.0,-100.00,South,191,8.0,-999.0,59,0.00,,,-99.99,415.799988,,2013-01-01 17:12:00,
2013-01-01 12:22:00,75.0,60.0,-100.00,South,191,8.0,-999.0,59,0.00,,,-99.99,415.799988,,2013-01-01 17:22:00,
2013-01-01 12:33:00,76.0,60.0,-100.00,South,180,9.0,-999.0,56,0.00,,,-99.99,465.700012,,2013-01-01 17:33:00,
2013-01-01 12:43:00,75.0,59.0,-100.00,SSE,166,7.0,-999.0,57,0.00,,,-99.99,381.500000,,2013-01-01 17:43:00,
2013-01-01 12:53:00,75.0,59.0,-100.00,SSE,166,7.0,-999.0,57,0.00,,,-99.99,381.500000,,2013-01-01 17:53:00,
2013-01-01 13:03:00,76.0,60.0,-100.00,South,174,6.0,-999.0,56,0.00,,,-99.99,391.000000,,2013-01-01 18:03:00,
2013-01-01 13:13:00,77.0,59.0,-100.00,SSW,192,8.0,-999.0,54,0.00,,,-99.99,357.600006,,2013-01-01 18:13:00,
2013-01-01 13:22:00,77.0,59.0,-100.00,SSW,192,8.0,-999.0,54,0.00,,,-99.99,357.600006,,2013-01-01 18:22:00,
2013-01-01 13:33:00,77.0,59.0,-100.00,South,177,9.0,-999.0,54,0.00,,,-99.99,388.299988,,2013-01-01 18:33:00,
2013-01-01 13:43:00,76.0,59.0,-100.00,SSW,196,8.0,-999.0,55,0.00,,,-99.99,392.299988,,2013-01-01 18:43:00,
2013-01-01 13:53:00,76.0,59.0,-100.00,SSW,196,8.0,-999.0,55,0.00,,,-99.99,392.299988,,2013-01-01 18:53:00,
2013-01-01 14:02:00,78.0,60.0,-100.00,SSW,208,9.0,-999.0,53,0.00,,,-99.99,541.400024,,2013-01-01 19:02:00,
2013-01-01 14:12:00,78.0,60.0,-100.00,SSW,208,9.0,-999.0,53,0.00,,,-99.99,541.400024,,2013-01-01 19:12:00,
2013-01-01 14:22:00,77.0,60.0,-100.00,SW,218,8.0,-999.0,54,0.00,,,-99.99,500.200012,,2013-01-01 19:22:00,
2013-01-01 14:33:00,77.0,60.0,-100.00,SW,225,9.0,-999.0,56,0.00,,,-99.99,372.100006,,2013-01-01 19:33:00,
2013-01-01 14:43:00,77.0,60.0,-100.00,WSW,248,5.0,-999.0,56,0.00,,,-99.99,488.799988,,2013-01-01 19:43:00,
2013-01-01 14:53:00,77.0,60.0,-100.00,WSW,248,5.0,-999.0,56,0.00,,,-99.99,488.799988,,2013-01-01 19:53:00,
2013-01-01 15:02:00,78.0,60.0,-100.00,SW,221,8.0,-999.0,54,0.00,,,-99.99,433.500000,,2013-01-01 20:02:00,
2013-01-01 15:13:00,77.0,60.0,-100.00,SW,224,4.0,-999.0,57,0.00,,,-99.99,250.600006,,2013-01-01 20:13:00,
2013-01-01 15:23:00,77.0,60.0,-100.00,SW,224,4.0,-999.0,57,0.00,,,-99.99,250.600006,,2013-01-01 20:23:00,
2013-01-01 15:32:00,79.0,61.0,-100.00,WSW,239,3.0,-999.0,53,0.00,,,-99.99,540.400024,,2013-01-01 20:32:00,
2013-01-01 15:42:00,78.0,61.0,-100.00,SW,226,8.0,-999.0,55,0.00,,,-99.99,362.500000,,2013-01-01 20:42:00,
2013-01-01 15:53:00,78.0,61.0,-100.00,SW,226,8.0,-999.0,55,0.00,,,-99.99,362.500000,,2013-01-01 20:53:00,
2013-01-01 16:03:00,78.0,61.0,-100.00,SW,225,8.0,-999.0,55,0.00,,,-99.99,308.600006,,2013-01-01 21:03:00,
2013-01-01 16:13:00,77.0,61.0,-100.00,SW,215,7.0,-999.0,56,0.00,,,-99.99,282.399994,,2013-01-01 21:13:00,
2013-01-01 16:22:00,77.0,61.0,-100.00,SW,215,7.0,-999.0,56,0.00,,,-99.99,282.399994,,2013-01-01 21:22:00,
2013-01-01 16:33:00,76.0,61.0,-100.00,SW,229,6.0,-999.0,58,0.00,,,-99.99,136.000000,,2013-01-01 21:33:00,
2013-01-01 16:42:00,77.0,61.0,-100.00,SW,218,4.0,-999.0,58,0.00,,,-99.99,175.600006,,2013-01-01 21:42:00,
2013-01-01 16:53:00,77.0,61.0,-100.00,SW,218,4.0,-999.0,58,0.00,,,-99.99,175.600006,,2013-01-01 21:53:00,
2013-01-01 17:02:00,76.0,60.0,-100.00,SW,227,7.0,-999.0,57,0.00,,,-99.99,134.500000,,2013-01-01 22:02:00,
2013-01-01 17:12:00,75.0,60.0,-100.00,SW,222,5.0,-999.0,61,0.00,,,-99.99,61.599998,,2013-01-01 22:12:00,
2013-01-01 17:22:00,75.0,60.0,-100.00,SW,222,5.0,-999.0,61,0.00,,,-99.99,61.599998,,2013-01-01 22:22:00,
2013-01-01 17:33:00,74.0,61.0,-100.00,SW,223,4.0,-999.0,64,0.00,,,-99.99,49.200001,,2013-01-01 22:33:00,
2013-01-01 17:43:00,72.0,61.0,-100.00,SW,221,4.0,-999.0,67,0.00,,,-99.99,20.500000,,2013-01-01 22:43:00,
2013-01-01 17:53:00,72.0,61.0,-100.00,SW,221,4.0,-999.0,67,0.00,,,-99.99,20.500000,,2013-01-01 22:53:00,
2013-01-01 18:03:00,71.0,61.0,-100.00,SSW,198,2.0,-999.0,70,0.00,,,-99.99,5.300000,,2013-01-01 23:03:00,
2013-01-01 18:12:00,68.0,60.0,-100.00,ESE,102,3.0,-999.0,75,0.00,,,-99.99,0.700000,,2013-01-01 23:12:00,
2013-01-01 18:22:00,68.0,60.0,-100.00,ESE,102,3.0,-999.0,75,0.00,,,-99.99,0.700000,,2013-01-01 23:22:00,
2013-01-01 18:32:00,68.0,61.0,-100.00,SE,127,4.0,-999.0,78,0.00,,,-99.99,0.000000,,2013-01-01 23:32:00,
2013-01-01 18:42:00,68.0,61.0,-100.00,ESE,113,4.0,-999.0,78,0.00,,,-99.99,0.000000,,2013-01-01 23:42:00,
2013-01-01 18:53:00,68.0,61.0,-100.00,ESE,113,4.0,-999.0,78,0.00,,,-99.99,0.000000,,2013-01-01 23:53:00,
2013-01-01 19:02:00,67.0,61.0,-100.00,ESE,108,4.0,-999.0,81,0.00,,,-99.99,0.000000,,2013-01-02 00:02:00,
2013-01-01 19:12:00,66.0,61.0,-100.00,ESE,109,4.0,-999.0,84,0.00,,,-99.99,0.000000,,2013-01-02 00:12:00,
2013-01-01 19:22:00,66.0,61.0,-100.00,ESE,109,4.0,-999.0,84,0.00,,,-99.99,0.000000,,2013-01-02 00:22:00,
2013-01-01 19:32:00,65.0,61.0,-100.00,East,94,3.0,-999.0,86,0.00,,,-99.99,0.000000,,2013-01-02 00:32:00,
2013-01-01 19:43:00,64.0,60.0,-100.00,ESE,102,3.0,-999.0,88,0.00,,,-99.99,0.000000,,2013-01-02 00:43:00,
2013-01-01 19:53:00,64.0,60.0,-100.00,ESE,102,3.0,-999.0,88,0.00,,,-99.99,0.000000,,2013-01-02 00:53:00,
2013-01-01 20:02:00,64.0,61.0,-100.00,ESE,123,5.0,-999.0,89,0.00,,,-99.99,0.000000,,2013-01-02 01:02:00,
2013-01-01 20:12:00,65.0,61.0,-100.00,SE,130,5.0,-999.0,88,0.00,,,-99.99,0.000000,,2013-01-02 01:12:00,
2013-01-01 20:22:00,65.0,61.0,-100.00,SE,130,5.0,-999.0,88,0.00,,,-99.99,0.000000,,2013-01-02 01:22:00,
2013-01-01 20:32:00,65.0,61.0,-100.00,SE,142,6.0,-999.0,87,0.00,,,-99.99,0.000000,,2013-01-02 01:32:00,
2013-01-01 20:42:00,65.0,61.0,-100.00,SSE,152,7.0,-999.0,86,0.00,,,-99.99,0.000000,,2013-01-02 01:42:00,
2013-01-01 20:52:00,65.0,61.0,-100.00,SSE,152,7.0,-999.0,86,0.00,,,-99.99,0.000000,,2013-01-02 01:52:00,
2013-01-01 21:02:00,64.0,60.0,-100.00,SSE,160,5.0,-999.0,87,0.00,,,-99.99,0.000000,,2013-01-02 02:02:00,
2013-01-01 21:12:00,63.0,60.0,-100.00,SSE,161,4.0,-999.0,88,0.00,,,-99.99,0.000000,,2013-01-02 02:12:00,
2013-01-01 21:22:00,63.0,60.0,-100.00,SSE,161,4.0,-999.0,88,0.00,,,-99.99,0.000000,,2013-01-02 02:22:00,
2013-01-01 21:32:00,63.0,60.0,-100.00,SSE,154,5.0,-999.0,89,0.00,,,-99.99,0.000000,,2013-01-02 02:32:00,
2013-01-01 21:42:00,63.0,60.0,-100.00,SE,146,4.0,-999.0,89,0.00,,,-99.99,0.000000,,2013-01-02 02:42:00,
2013-01-01 21:53:00,63.0,60.0,-100.00,SE,146,4.0,-999.0,89,0.00,,,-99.99,0.000000,,2013-01-02 02:53:00,
2013-01-01 22:02:00,64.0,60.0,-100.00,SE,146,5.0,-999.0,88,0.00,,,-99.99,0.000000,,2013-01-02 03:02:00,
2013-01-01 22:12:00,64.0,60.0,-100.00,SSE,150,5.0,-999.0,88,0.00,,,-99.99,0.000000,,2013-01-02 03:12:00,
2013-01-01 22:22:00,64.0,60.0,-100.00,SSE,150,5.0,-999.0,88,0.00,,,-99.99,0.000000,,2013-01-02 03:22:00,
2013-01-01 22:32:00,63.0,60.0,-100.00,SSE,160,4.0,-999.0,89,0.00,,,-99.99,0.000000,,2013-01-02 03:32:00,
2013-01-01 22:42:00,62.0,60.0,-100.00,SSE,162,5.0,-999.0,90,0.00,,,-99.99,0.000000,,2013-01-02 03:42:00,
2013-01-01 22:53:00,62.0,60.0,-100.00,SSE,162,5.0,-999.0,90,0.00,,,-99.99,0.000000,,2013-01-02 03:53:00,
2013-01-01 23:02:00,63.0,60.0,-100.00,SSE,161,5.0,-999.0,90,0.00,,,-99.99,0.000000,,2013-01-02 04:02:00,
2013-01-01 23:12:00,62.0,60.0,-100.00,SSE,158,4.0,-999.0,90,0.00,,,-99.99,0.000000,,2013-01-02 04:12:00,
2013-01-01 23:22:00,62.0,60.0,-100.00,SSE,158,4.0,-999.0,90,0.00,,,-99.99,0.000000,,2013-01-02 04:22:00,
2013-01-01 23:32:00,62.0,60.0,-100.00,SSW,199,6.0,-999.0,91,0.00,,,-99.99,0.000000,,2013-01-02 04:32:00,
2013-01-01 23:42:00,63.0,61.0,-100.00,WSW,241,6.0,-999.0,90,0.00,,,-99.99,0.000000,,2013-01-02 04:42:00,
2013-01-01 23:52:00,63.0,61.0,-100.00,WSW,241,6.0,-999.0,90,0.00,,,-99.99,0.000000,,2013-01-02 04:52:00,